sensor_id;sensor_type;location;lat;lon;timestamp;pressure;altitude;pressure_sealevel;temperature;humidity
79347;BME280;68815;48.810;44.482;2024-01-27T00:00:38;100745;;;-1.8;100
79347;BME280;68815;48.810;44.482;2024-01-27T00:03:40;100732;;;-1.8;100
79347;BME280;68815;48.810;44.482;2024-01-27T00:06:42;100733;;;-1.9;100
79347;BME280;68815;48.810;44.482;2024-01-27T00:09:44;100735;;;-1.8;100
79347;BME280;68815;48.810;44.482;2024-01-27T00:12:46;100743;;;-1.7;100
79347;BME280;68815;48.810;44.482;2024-01-27T00:15:47;100735;;;-1.7;100
79347;BME280;68815;48.810;44.482;2024-01-27T00:18:49;100738;;;-1.9;100
79347;BME280;68815;48.810;44.482;2024-01-27T00:21:51;100735;;;-1.9;100
79347;BME280;68815;48.810;44.482;2024-01-27T00:24:53;100734;;;-2;100
79347;BME280;68815;48.810;44.482;2024-01-27T00:27:55;100734;;;-2;100
79347;BME280;68815;48.810;44.482;2024-01-27T00:30:57;100722;;;-2;100
79347;BME280;68815;48.810;44.482;2024-01-27T00:33:59;100725;;;-2;100
79347;BME280;68815;48.810;44.482;2024-01-27T00:37:00;100726;;;-1.9;100
79347;BME280;68815;48.810;44.482;2024-01-27T00:40:04;100730;;;-1.9;100
79347;BME280;68815;48.810;44.482;2024-01-27T00:43:06;100733;;;-2;100
79347;BME280;68815;48.810;44.482;2024-01-27T00:46:08;100734;;;-2;100
79347;BME280;68815;48.810;44.482;2024-01-27T00:49:18;100740;;;-2;100
79347;BME280;68815;48.810;44.482;2024-01-27T00:52:20;100735;;;-2;100
79347;BME280;68815;48.810;44.482;2024-01-27T00:55:22;100735;;;-1.9;100
79347;BME280;68815;48.810;44.482;2024-01-27T00:58:24;100738;;;-1.9;100
79347;BME280;68815;48.810;44.482;2024-01-27T01:01:26;100743;;;-1.9;100
79347;BME280;68815;48.810;44.482;2024-01-27T01:04:28;100745;;;-2;100
79347;BME280;68815;48.810;44.482;2024-01-27T01:07:30;100743;;;-2.1;100
79347;BME280;68815;48.810;44.482;2024-01-27T01:10:32;100742;;;-2;100
79347;BME280;68815;48.810;44.482;2024-01-27T01:13:33;100733;;;-2;100
79347;BME280;68815;48.810;44.482;2024-01-27T01:16:35;100749;;;-2;100
79347;BME280;68815;48.810;44.482;2024-01-27T01:19:37;100745;;;-2;100
79347;BME280;68815;48.810;44.482;2024-01-27T01:22:39;100741;;;-1.9;100
79347;BME280;68815;48.810;44.482;2024-01-27T01:25:41;100745;;;-1.9;100
79347;BME280;68815;48.810;44.482;2024-01-27T01:28:43;100745;;;-1.9;100
79347;BME280;68815;48.810;44.482;2024-01-27T01:31:45;100742;;;-2;100
79347;BME280;68815;48.810;44.482;2024-01-27T01:34:47;100754;;;-1.9;100
79347;BME280;68815;48.810;44.482;2024-01-27T01:37:50;100759;;;-2;100
79347;BME280;68815;48.810;44.482;2024-01-27T01:40:51;100756;;;-2.1;100
79347;BME280;68815;48.810;44.482;2024-01-27T01:43:53;100746;;;-2.1;100
79347;BME280;68815;48.810;44.482;2024-01-27T01:46:55;100747;;;-2;100
79347;BME280;68815;48.810;44.482;2024-01-27T01:49:58;100742;;;-2.1;100
79347;BME280;68815;48.810;44.482;2024-01-27T01:53:00;100741;;;-2.2;100
79347;BME280;68815;48.810;44.482;2024-01-27T01:56:03;100739;;;-2.2;100
79347;BME280;68815;48.810;44.482;2024-01-27T01:59:05;100741;;;-2.2;100
79347;BME280;68815;48.810;44.482;2024-01-27T02:02:08;100753;;;-2.1;100
79347;BME280;68815;48.810;44.482;2024-01-27T02:05:10;100760;;;-2.2;100
79347;BME280;68815;48.810;44.482;2024-01-27T02:08:12;100753;;;-2.2;100
79347;BME280;68815;48.810;44.482;2024-01-27T02:11:14;100752;;;-2.2;100
79347;BME280;68815;48.810;44.482;2024-01-27T02:14:16;100754;;;-2.2;100
79347;BME280;68815;48.810;44.482;2024-01-27T02:17:18;100754;;;-2.2;100
79347;BME280;68815;48.810;44.482;2024-01-27T02:20:20;100760;;;-2.3;100
79347;BME280;68815;48.810;44.482;2024-01-27T02:23:21;100766;;;-2.3;100
79347;BME280;68815;48.810;44.482;2024-01-27T02:26:23;100766;;;-2.3;100
79347;BME280;68815;48.810;44.482;2024-01-27T02:29:25;100757;;;-2.2;100
79347;BME280;68815;48.810;44.482;2024-01-27T02:32:27;100760;;;-2.3;100
79347;BME280;68815;48.810;44.482;2024-01-27T02:35:29;100767;;;-2.2;100
79347;BME280;68815;48.810;44.482;2024-01-27T02:38:31;100760;;;-2.2;100
79347;BME280;68815;48.810;44.482;2024-01-27T02:41:33;100766;;;-2.3;100
79347;BME280;68815;48.810;44.482;2024-01-27T02:44:35;100770;;;-2.3;100
79347;BME280;68815;48.810;44.482;2024-01-27T02:47:37;100765;;;-2.3;100
79347;BME280;68815;48.810;44.482;2024-01-27T02:50:39;100764;;;-2.3;100
79347;BME280;68815;48.810;44.482;2024-01-27T02:53:42;100760;;;-2.3;100
79347;BME280;68815;48.810;44.482;2024-01-27T02:56:44;100754;;;-2.2;100
79347;BME280;68815;48.810;44.482;2024-01-27T02:59:45;100756;;;-2.2;100
79347;BME280;68815;48.810;44.482;2024-01-27T03:02:47;100762;;;-2.2;100
79347;BME280;68815;48.810;44.482;2024-01-27T03:05:49;100767;;;-2.1;100
79347;BME280;68815;48.810;44.482;2024-01-27T03:08:51;100764;;;-2.2;100
79347;BME280;68815;48.810;44.482;2024-01-27T03:11:53;100769;;;-2.3;100
79347;BME280;68815;48.810;44.482;2024-01-27T03:14:55;100765;;;-2.3;100
79347;BME280;68815;48.810;44.482;2024-01-27T03:17:57;100765;;;-2.4;100
79347;BME280;68815;48.810;44.482;2024-01-27T03:20:58;100760;;;-2.4;100
79347;BME280;68815;48.810;44.482;2024-01-27T03:24:00;100769;;;-2.4;100
79347;BME280;68815;48.810;44.482;2024-01-27T03:27:02;100776;;;-2.4;100
79347;BME280;68815;48.810;44.482;2024-01-27T03:30:04;100775;;;-2.4;100
79347;BME280;68815;48.810;44.482;2024-01-27T03:33:08;100761;;;-2.5;100
79347;BME280;68815;48.810;44.482;2024-01-27T03:36:10;100759;;;-2.5;100
79347;BME280;68815;48.810;44.482;2024-01-27T03:39:12;100760;;;-2.5;100
79347;BME280;68815;48.810;44.482;2024-01-27T03:42:14;100756;;;-2.5;100
79347;BME280;68815;48.810;44.482;2024-01-27T03:45:16;100761;;;-2.5;100
79347;BME280;68815;48.810;44.482;2024-01-27T03:48:18;100754;;;-2.6;100
79347;BME280;68815;48.810;44.482;2024-01-27T03:51:19;100771;;;-2.6;100
79347;BME280;68815;48.810;44.482;2024-01-27T03:54:22;100770;;;-2.6;100
79347;BME280;68815;48.810;44.482;2024-01-27T03:57:24;100773;;;-2.7;100
79347;BME280;68815;48.810;44.482;2024-01-27T04:00:26;100775;;;-2.7;100
79347;BME280;68815;48.810;44.482;2024-01-27T04:03:28;100784;;;-2.7;100
79347;BME280;68815;48.810;44.482;2024-01-27T04:06:35;100788;;;-2.7;100
79347;BME280;68815;48.810;44.482;2024-01-27T04:09:38;100786;;;-2.7;100
79347;BME280;68815;48.810;44.482;2024-01-27T04:12:39;100786;;;-2.7;100
79347;BME280;68815;48.810;44.482;2024-01-27T04:15:41;100787;;;-2.7;100
79347;BME280;68815;48.810;44.482;2024-01-27T04:18:43;100788;;;-2.8;100
79347;BME280;68815;48.810;44.482;2024-01-27T04:21:45;100782;;;-2.8;100
79347;BME280;68815;48.810;44.482;2024-01-27T04:24:47;100786;;;-2.9;100
79347;BME280;68815;48.810;44.482;2024-01-27T04:27:48;100787;;;-2.9;100
79347;BME280;68815;48.810;44.482;2024-01-27T04:30:50;100792;;;-3;100
79347;BME280;68815;48.810;44.482;2024-01-27T04:33:52;100791;;;-2.9;100
79347;BME280;68815;48.810;44.482;2024-01-27T04:36:54;100790;;;-3;100
79347;BME280;68815;48.810;44.482;2024-01-27T04:39:56;100802;;;-3.1;100
79347;BME280;68815;48.810;44.482;2024-01-27T04:42:58;100792;;;-3.1;100
79347;BME280;68815;48.810;44.482;2024-01-27T04:45:59;100786;;;-3.1;100
79347;BME280;68815;48.810;44.482;2024-01-27T04:49:01;100802;;;-3.2;100
79347;BME280;68815;48.810;44.482;2024-01-27T04:52:03;100799;;;-3.1;100
79347;BME280;68815;48.810;44.482;2024-01-27T04:55:06;100808;;;-3.1;100
79347;BME280;68815;48.810;44.482;2024-01-27T04:58:08;100814;;;-3.1;100
79347;BME280;68815;48.810;44.482;2024-01-27T05:01:10;100814;;;-3.1;100
79347;BME280;68815;48.810;44.482;2024-01-27T05:04:12;100834;;;-3.2;100
79347;BME280;68815;48.810;44.482;2024-01-27T05:07:14;100827;;;-3.2;100
79347;BME280;68815;48.810;44.482;2024-01-27T05:10:17;100833;;;-3.3;100
79347;BME280;68815;48.810;44.482;2024-01-27T05:13:19;100838;;;-3.2;100
79347;BME280;68815;48.810;44.482;2024-01-27T05:16:21;100830;;;-3.2;100
79347;BME280;68815;48.810;44.482;2024-01-27T05:19:23;100837;;;-3.2;100
79347;BME280;68815;48.810;44.482;2024-01-27T05:22:25;100842;;;-3.3;100
79347;BME280;68815;48.810;44.482;2024-01-27T05:25:27;100837;;;-3.4;100
79347;BME280;68815;48.810;44.482;2024-01-27T05:28:29;100849;;;-3.3;100
79347;BME280;68815;48.810;44.482;2024-01-27T05:31:31;100853;;;-3.3;100
79347;BME280;68815;48.810;44.482;2024-01-27T05:34:33;100865;;;-3.4;100
79347;BME280;68815;48.810;44.482;2024-01-27T05:37:35;100867;;;-3.4;100
79347;BME280;68815;48.810;44.482;2024-01-27T05:40:37;100862;;;-3.4;100
79347;BME280;68815;48.810;44.482;2024-01-27T05:43:39;100866;;;-3.4;100
79347;BME280;68815;48.810;44.482;2024-01-27T05:46:40;100867;;;-3.5;100
79347;BME280;68815;48.810;44.482;2024-01-27T05:49:47;100858;;;-3.5;100
79347;BME280;68815;48.810;44.482;2024-01-27T05:52:50;100861;;;-3.5;100
79347;BME280;68815;48.810;44.482;2024-01-27T05:55:52;100864;;;-3.6;100
79347;BME280;68815;48.810;44.482;2024-01-27T05:58:54;100885;;;-3.5;100
79347;BME280;68815;48.810;44.482;2024-01-27T06:01:56;100883;;;-3.5;100
79347;BME280;68815;48.810;44.482;2024-01-27T06:04:58;100882;;;-3.5;100
79347;BME280;68815;48.810;44.482;2024-01-27T06:07:59;100882;;;-3.4;100
79347;BME280;68815;48.810;44.482;2024-01-27T06:11:01;100888;;;-3.6;100
79347;BME280;68815;48.810;44.482;2024-01-27T06:14:04;100899;;;-3.5;100
79347;BME280;68815;48.810;44.482;2024-01-27T06:17:05;100893;;;-3.5;100
79347;BME280;68815;48.810;44.482;2024-01-27T06:20:08;100903;;;-3.5;100
79347;BME280;68815;48.810;44.482;2024-01-27T06:23:10;100909;;;-3.5;100
79347;BME280;68815;48.810;44.482;2024-01-27T06:26:13;100909;;;-3.5;100
79347;BME280;68815;48.810;44.482;2024-01-27T06:29:15;100908;;;-3.6;100
79347;BME280;68815;48.810;44.482;2024-01-27T06:32:16;100913;;;-3.6;100
79347;BME280;68815;48.810;44.482;2024-01-27T06:35:18;100913;;;-3.6;100
79347;BME280;68815;48.810;44.482;2024-01-27T06:38:20;100906;;;-3.5;100
79347;BME280;68815;48.810;44.482;2024-01-27T06:41:22;100915;;;-3.5;100
79347;BME280;68815;48.810;44.482;2024-01-27T06:44:25;100910;;;-3.5;100
79347;BME280;68815;48.810;44.482;2024-01-27T06:47:27;100925;;;-3.5;100
79347;BME280;68815;48.810;44.482;2024-01-27T06:50:29;100920;;;-3.5;100
79347;BME280;68815;48.810;44.482;2024-01-27T06:53:33;100933;;;-3.5;100
79347;BME280;68815;48.810;44.482;2024-01-27T06:56:35;100919;;;-3.5;100
79347;BME280;68815;48.810;44.482;2024-01-27T06:59:37;100922;;;-3.5;100
79347;BME280;68815;48.810;44.482;2024-01-27T07:02:40;100920;;;-3.5;100
79347;BME280;68815;48.810;44.482;2024-01-27T07:05:42;100915;;;-3.5;100
79347;BME280;68815;48.810;44.482;2024-01-27T07:08:44;100916;;;-3.5;100
79347;BME280;68815;48.810;44.482;2024-01-27T07:11:45;100920;;;-3.4;100
79347;BME280;68815;48.810;44.482;2024-01-27T07:14:47;100926;;;-3.5;100
79347;BME280;68815;48.810;44.482;2024-01-27T07:17:49;100917;;;-3.5;100
79347;BME280;68815;48.810;44.482;2024-01-27T07:20:51;100930;;;-3.3;100
79347;BME280;68815;48.810;44.482;2024-01-27T07:23:53;100932;;;-3.4;100
79347;BME280;68815;48.810;44.482;2024-01-27T07:26:55;100937;;;-3.4;100
79347;BME280;68815;48.810;44.482;2024-01-27T07:29:57;100933;;;-3.3;100
79347;BME280;68815;48.810;44.482;2024-01-27T07:32:59;100938;;;-3.3;100
79347;BME280;68815;48.810;44.482;2024-01-27T07:36:01;100936;;;-3.3;100
79347;BME280;68815;48.810;44.482;2024-01-27T07:39:03;100943;;;-3.3;100
79347;BME280;68815;48.810;44.482;2024-01-27T07:42:05;100935;;;-3.3;100
79347;BME280;68815;48.810;44.482;2024-01-27T07:45:07;100928;;;-3.2;100
79347;BME280;68815;48.810;44.482;2024-01-27T07:48:09;100935;;;-3.2;100
79347;BME280;68815;48.810;44.482;2024-01-27T07:51:11;100946;;;-3.2;100
79347;BME280;68815;48.810;44.482;2024-01-27T07:54:13;100948;;;-3.1;100
79347;BME280;68815;48.810;44.482;2024-01-27T07:57:15;100961;;;-3.1;100
79347;BME280;68815;48.810;44.482;2024-01-27T08:00:17;100951;;;-3.2;100
79347;BME280;68815;48.810;44.482;2024-01-27T08:03:19;100947;;;-3.1;100
79347;BME280;68815;48.810;44.482;2024-01-27T08:06:27;100938;;;-3;100
79347;BME280;68815;48.810;44.482;2024-01-27T08:09:30;100946;;;-2.9;100
79347;BME280;68815;48.810;44.482;2024-01-27T08:12:32;100944;;;-3;100
79347;BME280;68815;48.810;44.482;2024-01-27T08:15:34;100941;;;-2.9;100
79347;BME280;68815;48.810;44.482;2024-01-27T08:18:36;100933;;;-2.8;100
79347;BME280;68815;48.810;44.482;2024-01-27T08:21:38;100927;;;-2.8;100
79347;BME280;68815;48.810;44.482;2024-01-27T08:24:39;100935;;;-2.8;100
79347;BME280;68815;48.810;44.482;2024-01-27T08:27:41;100923;;;-2.8;100
79347;BME280;68815;48.810;44.482;2024-01-27T08:30:43;100925;;;-2.8;100
79347;BME280;68815;48.810;44.482;2024-01-27T08:33:45;100925;;;-2.6;100
79347;BME280;68815;48.810;44.482;2024-01-27T08:36:47;100929;;;-2.6;100
79347;BME280;68815;48.810;44.482;2024-01-27T08:39:49;100923;;;-2.7;100
79347;BME280;68815;48.810;44.482;2024-01-27T08:42:51;100932;;;-2.6;100
79347;BME280;68815;48.810;44.482;2024-01-27T08:45:53;100933;;;-2.7;100
79347;BME280;68815;48.810;44.482;2024-01-27T08:48:55;100931;;;-2.7;100
79347;BME280;68815;48.810;44.482;2024-01-27T08:51:58;100926;;;-2.7;100
79347;BME280;68815;48.810;44.482;2024-01-27T08:54:59;100922;;;-2.5;100
79347;BME280;68815;48.810;44.482;2024-01-27T08:58:01;100927;;;-2.6;100
79347;BME280;68815;48.810;44.482;2024-01-27T09:01:03;100927;;;-2.7;100
79347;BME280;68815;48.810;44.482;2024-01-27T09:04:05;100923;;;-2.6;100
79347;BME280;68815;48.810;44.482;2024-01-27T09:07:07;100917;;;-2.5;100
79347;BME280;68815;48.810;44.482;2024-01-27T09:10:10;100918;;;-2.5;100
79347;BME280;68815;48.810;44.482;2024-01-27T09:13:12;100922;;;-2.8;100
79347;BME280;68815;48.810;44.482;2024-01-27T09:16:14;100923;;;-3;100
79347;BME280;68815;48.810;44.482;2024-01-27T09:19:16;100928;;;-2.6;100
79347;BME280;68815;48.810;44.482;2024-01-27T09:22:18;100920;;;-2.9;100
79347;BME280;68815;48.810;44.482;2024-01-27T09:25:20;100910;;;-3;100
79347;BME280;68815;48.810;44.482;2024-01-27T09:28:22;100920;;;-2.9;100
79347;BME280;68815;48.810;44.482;2024-01-27T09:31:25;100918;;;-2.9;100
79347;BME280;68815;48.810;44.482;2024-01-27T09:34:27;100922;;;-2.8;100
79347;BME280;68815;48.810;44.482;2024-01-27T09:37:29;100920;;;-2.8;100
79347;BME280;68815;48.810;44.482;2024-01-27T09:40:31;100930;;;-2.7;100
79347;BME280;68815;48.810;44.482;2024-01-27T09:43:33;100925;;;-2.8;100
79347;BME280;68815;48.810;44.482;2024-01-27T09:46:38;100923;;;-2.8;100
79347;BME280;68815;48.810;44.482;2024-01-27T09:49:40;100925;;;-2.8;100
79347;BME280;68815;48.810;44.482;2024-01-27T09:52:43;100931;;;-2.8;100
79347;BME280;68815;48.810;44.482;2024-01-27T09:55:46;100936;;;-2.7;100
79347;BME280;68815;48.810;44.482;2024-01-27T09:58:49;100937;;;-2.8;100
79347;BME280;68815;48.810;44.482;2024-01-27T10:01:52;100936;;;-2.7;100
79347;BME280;68815;48.810;44.482;2024-01-27T10:04:54;100940;;;-2.8;100
79347;BME280;68815;48.810;44.482;2024-01-27T10:07:56;100940;;;-2.7;100
79347;BME280;68815;48.810;44.482;2024-01-27T10:10:59;100946;;;-2.7;100
79347;BME280;68815;48.810;44.482;2024-01-27T10:14:01;100946;;;-2.7;100
79347;BME280;68815;48.810;44.482;2024-01-27T10:17:03;100937;;;-2.8;100
79347;BME280;68815;48.810;44.482;2024-01-27T10:20:05;100945;;;-2.8;100
79347;BME280;68815;48.810;44.482;2024-01-27T10:23:11;100941;;;-2.8;100
79347;BME280;68815;48.810;44.482;2024-01-27T10:26:14;100935;;;-2.6;100
79347;BME280;68815;48.810;44.482;2024-01-27T10:29:16;100942;;;-2.4;100
79347;BME280;68815;48.810;44.482;2024-01-27T10:32:17;100940;;;-2.4;100
79347;BME280;68815;48.810;44.482;2024-01-27T10:35:19;100939;;;-2.3;100
79347;BME280;68815;48.810;44.482;2024-01-27T10:38:21;100937;;;-2.5;100
79347;BME280;68815;48.810;44.482;2024-01-27T10:41:24;100938;;;-2.6;100
79347;BME280;68815;48.810;44.482;2024-01-27T10:44:27;100940;;;-2.4;100
79347;BME280;68815;48.810;44.482;2024-01-27T10:47:32;100942;;;-2.2;100
79347;BME280;68815;48.810;44.482;2024-01-27T10:50:36;100939;;;-2.1;100
79347;BME280;68815;48.810;44.482;2024-01-27T10:53:39;100947;;;-2.2;100
79347;BME280;68815;48.810;44.482;2024-01-27T10:56:42;100944;;;-2.3;100
79347;BME280;68815;48.810;44.482;2024-01-27T10:59:45;100951;;;-2.4;100
79347;BME280;68815;48.810;44.482;2024-01-27T11:02:49;100950;;;-2.1;100
79347;BME280;68815;48.810;44.482;2024-01-27T11:05:52;100953;;;-2.2;100
79347;BME280;68815;48.810;44.482;2024-01-27T11:08:55;100950;;;-2.3;100
79347;BME280;68815;48.810;44.482;2024-01-27T11:11:58;100947;;;-2.4;100
79347;BME280;68815;48.810;44.482;2024-01-27T11:15:00;100956;;;-2.3;100
79347;BME280;68815;48.810;44.482;2024-01-27T11:18:04;100949;;;-2.3;100
79347;BME280;68815;48.810;44.482;2024-01-27T11:21:06;100953;;;-2.3;100
79347;BME280;68815;48.810;44.482;2024-01-27T11:24:16;100955;;;-2.2;100
79347;BME280;68815;48.810;44.482;2024-01-27T11:27:26;100961;;;-2.3;100
79347;BME280;68815;48.810;44.482;2024-01-27T11:30:30;100968;;;-2.3;100
79347;BME280;68815;48.810;44.482;2024-01-27T11:33:32;100967;;;-2.1;100
79347;BME280;68815;48.810;44.482;2024-01-27T11:36:34;100974;;;-2.1;100
79347;BME280;68815;48.810;44.482;2024-01-27T11:39:36;100970;;;-2;100
79347;BME280;68815;48.810;44.482;2024-01-27T11:42:39;100968;;;-2.2;100
79347;BME280;68815;48.810;44.482;2024-01-27T11:45:42;100971;;;-2.1;100
79347;BME280;68815;48.810;44.482;2024-01-27T11:48:44;100976;;;-2.2;100
79347;BME280;68815;48.810;44.482;2024-01-27T11:51:46;100973;;;-2.1;100
79347;BME280;68815;48.810;44.482;2024-01-27T11:54:53;100972;;;-2;100
79347;BME280;68815;48.810;44.482;2024-01-27T11:57:56;100980;;;-2;100
79347;BME280;68815;48.810;44.482;2024-01-27T12:00:59;100981;;;-2;100
79347;BME280;68815;48.810;44.482;2024-01-27T12:04:02;100990;;;-2;100
79347;BME280;68815;48.810;44.482;2024-01-27T12:07:04;100992;;;-1.9;100
79347;BME280;68815;48.810;44.482;2024-01-27T12:10:07;100997;;;-2;100
79347;BME280;68815;48.810;44.482;2024-01-27T12:13:09;100998;;;-1.9;100
79347;BME280;68815;48.810;44.482;2024-01-27T12:16:11;101007;;;-1.8;100
79347;BME280;68815;48.810;44.482;2024-01-27T12:19:13;101011;;;-2;100
79347;BME280;68815;48.810;44.482;2024-01-27T12:22:23;101009;;;-2;100
79347;BME280;68815;48.810;44.482;2024-01-27T12:25:27;101012;;;-2;100
79347;BME280;68815;48.810;44.482;2024-01-27T12:28:29;101020;;;-1.9;100
79347;BME280;68815;48.810;44.482;2024-01-27T12:31:31;101023;;;-2;100
79347;BME280;68815;48.810;44.482;2024-01-27T12:34:33;101029;;;-2.1;100
79347;BME280;68815;48.810;44.482;2024-01-27T12:37:43;101033;;;-2;100
79347;BME280;68815;48.810;44.482;2024-01-27T12:40:46;101019;;;-2.1;100
79347;BME280;68815;48.810;44.482;2024-01-27T12:43:48;101027;;;-1.9;100
79347;BME280;68815;48.810;44.482;2024-01-27T12:46:50;101027;;;-1.9;100
79347;BME280;68815;48.810;44.482;2024-01-27T12:49:53;101023;;;-2;100
79347;BME280;68815;48.810;44.482;2024-01-27T12:52:55;101024;;;-2.1;100
79347;BME280;68815;48.810;44.482;2024-01-27T12:55:57;101033;;;-2.1;100
79347;BME280;68815;48.810;44.482;2024-01-27T12:58:59;101036;;;-2.1;100
79347;BME280;68815;48.810;44.482;2024-01-27T13:02:01;101036;;;-2.1;100
79347;BME280;68815;48.810;44.482;2024-01-27T13:05:03;101036;;;-2.1;100
79347;BME280;68815;48.810;44.482;2024-01-27T13:08:05;101038;;;-1.9;100
79347;BME280;68815;48.810;44.482;2024-01-27T13:11:08;101039;;;-2;100
79347;BME280;68815;48.810;44.482;2024-01-27T13:14:09;101037;;;-2.1;100
79347;BME280;68815;48.810;44.482;2024-01-27T13:17:11;101043;;;-2.3;100
79347;BME280;68815;48.810;44.482;2024-01-27T13:20:13;101046;;;-2.2;100
79347;BME280;68815;48.810;44.482;2024-01-27T13:23:15;101046;;;-2.2;100
79347;BME280;68815;48.810;44.482;2024-01-27T13:26:16;101051;;;-2.2;100
79347;BME280;68815;48.810;44.482;2024-01-27T13:29:18;101055;;;-2.3;100
79347;BME280;68815;48.810;44.482;2024-01-27T13:32:20;101048;;;-2.1;100
79347;BME280;68815;48.810;44.482;2024-01-27T13:35:22;101043;;;-2.2;100
79347;BME280;68815;48.810;44.482;2024-01-27T13:38:24;101043;;;-2.1;100
79347;BME280;68815;48.810;44.482;2024-01-27T13:41:26;101047;;;-2.2;100
79347;BME280;68815;48.810;44.482;2024-01-27T13:44:28;101049;;;-2.2;100
79347;BME280;68815;48.810;44.482;2024-01-27T13:47:30;101055;;;-2.3;100
79347;BME280;68815;48.810;44.482;2024-01-27T13:50:32;101058;;;-2.3;100
79347;BME280;68815;48.810;44.482;2024-01-27T13:53:35;101056;;;-2.3;100
79347;BME280;68815;48.810;44.482;2024-01-27T13:56:36;101065;;;-2.3;100
79347;BME280;68815;48.810;44.482;2024-01-27T13:59:38;101064;;;-2.3;100
79347;BME280;68815;48.810;44.482;2024-01-27T14:02:40;101068;;;-2.3;100
79347;BME280;68815;48.810;44.482;2024-01-27T14:05:42;101074;;;-2.3;100
79347;BME280;68815;48.810;44.482;2024-01-27T14:08:44;101076;;;-2.4;100
79347;BME280;68815;48.810;44.482;2024-01-27T14:11:52;101072;;;-2.2;100
79347;BME280;68815;48.810;44.482;2024-01-27T14:15:02;101078;;;-2.3;100
79347;BME280;68815;48.810;44.482;2024-01-27T14:18:07;101082;;;-2.4;100
79347;BME280;68815;48.810;44.482;2024-01-27T14:21:09;101092;;;-2.2;100
79347;BME280;68815;48.810;44.482;2024-01-27T14:24:11;101097;;;-2.3;100
79347;BME280;68815;48.810;44.482;2024-01-27T14:27:13;101102;;;-2.3;100
79347;BME280;68815;48.810;44.482;2024-01-27T14:30:15;101103;;;-2.4;100
79347;BME280;68815;48.810;44.482;2024-01-27T14:33:17;101107;;;-2.2;100
79347;BME280;68815;48.810;44.482;2024-01-27T14:36:19;101116;;;-2.1;100
79347;BME280;68815;48.810;44.482;2024-01-27T14:39:22;101112;;;-2.3;100
79347;BME280;68815;48.810;44.482;2024-01-27T14:42:24;101109;;;-2.2;100
79347;BME280;68815;48.810;44.482;2024-01-27T14:45:27;101107;;;-2.2;100
79347;BME280;68815;48.810;44.482;2024-01-27T14:48:30;101119;;;-2.3;100
79347;BME280;68815;48.810;44.482;2024-01-27T14:51:31;101106;;;-2.2;100
79347;BME280;68815;48.810;44.482;2024-01-27T14:54:34;101116;;;-2.2;100
79347;BME280;68815;48.810;44.482;2024-01-27T14:57:36;101118;;;-2.3;100
79347;BME280;68815;48.810;44.482;2024-01-27T15:00:38;101120;;;-2.2;100
79347;BME280;68815;48.810;44.482;2024-01-27T15:03:40;101126;;;-2.2;100
79347;BME280;68815;48.810;44.482;2024-01-27T15:06:42;101126;;;-2.2;100
79347;BME280;68815;48.810;44.482;2024-01-27T15:09:44;101124;;;-2.2;100
79347;BME280;68815;48.810;44.482;2024-01-27T15:12:46;101133;;;-2.3;100
79347;BME280;68815;48.810;44.482;2024-01-27T15:15:48;101139;;;-2.3;100
79347;BME280;68815;48.810;44.482;2024-01-27T15:18:50;101138;;;-2.3;100
79347;BME280;68815;48.810;44.482;2024-01-27T15:21:52;101136;;;-2.3;100
79347;BME280;68815;48.810;44.482;2024-01-27T15:24:54;101139;;;-2.4;100
79347;BME280;68815;48.810;44.482;2024-01-27T15:27:56;101143;;;-2.4;100
79347;BME280;68815;48.810;44.482;2024-01-27T15:30:58;101145;;;-2.5;100
79347;BME280;68815;48.810;44.482;2024-01-27T15:34:00;101154;;;-2.4;100
79347;BME280;68815;48.810;44.482;2024-01-27T15:37:03;101147;;;-2.5;100
79347;BME280;68815;48.810;44.482;2024-01-27T15:40:07;101150;;;-2.5;100
79347;BME280;68815;48.810;44.482;2024-01-27T15:43:24;101151;;;-2.5;100
79347;BME280;68815;48.810;44.482;2024-01-27T15:47:00;101149;;;-2.4;100
79347;BME280;68815;48.810;44.482;2024-01-27T15:50:02;101148;;;-2.5;100
79347;BME280;68815;48.810;44.482;2024-01-27T15:53:05;101148;;;-2.5;100
79347;BME280;68815;48.810;44.482;2024-01-27T15:56:07;101147;;;-2.6;100
79347;BME280;68815;48.810;44.482;2024-01-27T15:59:09;101149;;;-2.6;100
79347;BME280;68815;48.810;44.482;2024-01-27T16:02:11;101153;;;-2.7;100
79347;BME280;68815;48.810;44.482;2024-01-27T16:05:12;101153;;;-2.7;100
79347;BME280;68815;48.810;44.482;2024-01-27T16:08:14;101159;;;-2.6;100
79347;BME280;68815;48.810;44.482;2024-01-27T16:11:16;101157;;;-2.7;100
79347;BME280;68815;48.810;44.482;2024-01-27T16:14:18;101157;;;-2.8;100
79347;BME280;68815;48.810;44.482;2024-01-27T16:17:20;101160;;;-2.7;100
79347;BME280;68815;48.810;44.482;2024-01-27T16:20:22;101154;;;-2.8;100
79347;BME280;68815;48.810;44.482;2024-01-27T16:23:24;101163;;;-2.8;100
79347;BME280;68815;48.810;44.482;2024-01-27T16:26:26;101160;;;-2.9;100
79347;BME280;68815;48.810;44.482;2024-01-27T16:29:28;101164;;;-2.9;100
79347;BME280;68815;48.810;44.482;2024-01-27T16:32:29;101164;;;-2.9;100
79347;BME280;68815;48.810;44.482;2024-01-27T16:35:31;101168;;;-3.1;100
79347;BME280;68815;48.810;44.482;2024-01-27T16:38:33;101164;;;-3.1;100
79347;BME280;68815;48.810;44.482;2024-01-27T16:41:35;101166;;;-3;100
79347;BME280;68815;48.810;44.482;2024-01-27T16:44:37;101173;;;-3;100
79347;BME280;68815;48.810;44.482;2024-01-27T16:47:39;101174;;;-3.1;100
79347;BME280;68815;48.810;44.482;2024-01-27T16:50:42;101175;;;-3.2;100
79347;BME280;68815;48.810;44.482;2024-01-27T16:53:44;101179;;;-3.2;100
79347;BME280;68815;48.810;44.482;2024-01-27T16:56:46;101179;;;-3.4;100
79347;BME280;68815;48.810;44.482;2024-01-27T16:59:48;101182;;;-3.6;100
79347;BME280;68815;48.810;44.482;2024-01-27T17:02:50;101190;;;-3.7;100